sensor_id;sensor_type;location;lat;lon;timestamp;P1;durP1;ratioP1;P2;durP2;ratioP2
76749;SDS011;66447;35.844;14.468;2023-02-02T00:26:57;7.55;;;3.58;;
76749;SDS011;66447;35.844;14.468;2023-02-02T00:56:59;8.55;;;3.03;;
76749;SDS011;66447;35.844;14.468;2023-02-02T01:12:00;7.32;;;3.30;;
76749;SDS011;66447;35.844;14.468;2023-02-02T01:27:01;8.57;;;2.65;;
76749;SDS011;66447;35.844;14.468;2023-02-02T01:42:01;5.15;;;2.67;;
76749;SDS011;66447;35.844;14.468;2023-02-02T01:57:11;5.75;;;2.83;;
76749;SDS011;66447;35.844;14.468;2023-02-02T02:12:18;5.43;;;2.35;;
76749;SDS011;66447;35.844;14.468;2023-02-02T02:43:12;6.05;;;2.58;;
76749;SDS011;66447;35.844;14.468;2023-02-02T02:58:19;5.93;;;2.70;;
76749;SDS011;66447;35.844;14.468;2023-02-02T03:13:27;11.70;;;2.95;;
76749;SDS011;66447;35.844;14.468;2023-02-02T03:28:28;6.73;;;2.77;;
76749;SDS011;66447;35.844;14.468;2023-02-02T03:43:30;9.00;;;2.47;;
76749;SDS011;66447;35.844;14.468;2023-02-02T03:58:30;4.57;;;1.67;;
76749;SDS011;66447;35.844;14.468;2023-02-02T04:13:31;5.22;;;1.60;;
76749;SDS011;66447;35.844;14.468;2023-02-02T04:28:32;14.90;;;2.67;;
76749;SDS011;66447;35.844;14.468;2023-02-02T04:43:33;6.90;;;1.40;;
76749;SDS011;66447;35.844;14.468;2023-02-02T04:58:35;7.88;;;1.70;;
76749;SDS011;66447;35.844;14.468;2023-02-02T05:13:36;7.88;;;1.60;;
76749;SDS011;66447;35.844;14.468;2023-02-02T05:28:37;3.80;;;1.83;;
76749;SDS011;66447;35.844;14.468;2023-02-02T05:43:38;8.40;;;2.63;;
76749;SDS011;66447;35.844;14.468;2023-02-02T05:58:38;3.95;;;1.40;;
76749;SDS011;66447;35.844;14.468;2023-02-02T06:13:39;2.53;;;1.20;;
76749;SDS011;66447;35.844;14.468;2023-02-02T06:28:40;5.67;;;1.60;;
76749;SDS011;66447;35.844;14.468;2023-02-02T06:43:42;4.95;;;1.90;;
76749;SDS011;66447;35.844;14.468;2023-02-02T06:58:43;6.63;;;1.50;;
76749;SDS011;66447;35.844;14.468;2023-02-02T07:13:44;6.33;;;1.90;;
76749;SDS011;66447;35.844;14.468;2023-02-02T07:28:46;9.00;;;2.50;;
76749;SDS011;66447;35.844;14.468;2023-02-02T07:43:47;6.20;;;1.90;;
76749;SDS011;66447;35.844;14.468;2023-02-02T08:13:52;15.20;;;3.13;;
76749;SDS011;66447;35.844;14.468;2023-02-02T08:28:59;11.65;;;2.80;;
76749;SDS011;66447;35.844;14.468;2023-02-02T08:44:04;6.68;;;3.03;;
76749;SDS011;66447;35.844;14.468;2023-02-02T08:59:05;13.20;;;3.15;;
76749;SDS011;66447;35.844;14.468;2023-02-02T09:14:06;14.63;;;3.73;;
76749;SDS011;66447;35.844;14.468;2023-02-02T09:59:39;6.15;;;1.80;;
76749;SDS011;66447;35.844;14.468;2023-02-02T10:14:43;10.05;;;2.60;;
76749;SDS011;66447;35.844;14.468;2023-02-02T11:31:33;5.90;;;2.00;;
76749;SDS011;66447;35.844;14.468;2023-02-02T11:46:37;11.65;;;2.40;;
76749;SDS011;66447;35.844;14.468;2023-02-02T12:01:38;14.35;;;3.05;;
76749;SDS011;66447;35.844;14.468;2023-02-02T13:17:48;6.15;;;2.33;;
76749;SDS011;66447;35.844;14.468;2023-02-02T13:33:02;7.88;;;2.15;;
76749;SDS011;66447;35.844;14.468;2023-02-02T13:48:16;9.38;;;2.90;;
76749;SDS011;66447;35.844;14.468;2023-02-02T14:03:26;9.00;;;2.40;;
76749;SDS011;66447;35.844;14.468;2023-02-02T14:34:19;10.90;;;2.75;;
76749;SDS011;66447;35.844;14.468;2023-02-02T14:49:33;12.93;;;3.60;;
76749;SDS011;66447;35.844;14.468;2023-02-02T15:04:34;5.05;;;1.40;;
76749;SDS011;66447;35.844;14.468;2023-02-02T15:19:39;8.33;;;1.70;;
76749;SDS011;66447;35.844;14.468;2023-02-02T15:34:47;8.17;;;1.67;;
76749;SDS011;66447;35.844;14.468;2023-02-02T15:49:53;8.05;;;1.42;;
76749;SDS011;66447;35.844;14.468;2023-02-02T16:04:55;6.47;;;1.80;;
76749;SDS011;66447;35.844;14.468;2023-02-02T16:19:58;8.77;;;2.05;;
76749;SDS011;66447;35.844;14.468;2023-02-02T16:35:22;9.90;;;1.92;;
76749;SDS011;66447;35.844;14.468;2023-02-02T16:50:32;10.65;;;2.42;;
76749;SDS011;66447;35.844;14.468;2023-02-02T17:05:36;15.32;;;3.55;;
76749;SDS011;66447;35.844;14.468;2023-02-02T17:20:55;12.43;;;4.18;;
76749;SDS011;66447;35.844;14.468;2023-02-02T17:36:03;9.07;;;4.38;;
76749;SDS011;66447;35.844;14.468;2023-02-02T18:06:06;15.77;;;6.47;;
76749;SDS011;66447;35.844;14.468;2023-02-02T18:21:09;17.08;;;5.38;;
76749;SDS011;66447;35.844;14.468;2023-02-02T18:36:15;10.83;;;4.70;;
76749;SDS011;66447;35.844;14.468;2023-02-02T18:51:19;15.18;;;5.05;;
